Terminal Aerodrome Forecast
Issued by NWS Boston, MA

Current Version | Previous Version | Text Only | Print | Product List | Glossary On
Versions: 1 2 3 4 5 6 7 8 9 10 11 12 13 14 15 16 17 18 19 20 21 22 23 24 25 26 27 28 29 30 31 32 33 34 35 36 37 38 39 40 41 42 43 44 45 46 47 48 49 50
000 FTUS41 KBOX 211736 TAFBOS TAF KBOS 211736Z 2118/2224 07009KT P6SM VCSH SCT025 OVC040 FM212100 06007KT P6SM OVC025 FM220300 02007KT P6SM OVC010 FM220600 02009KT 3SM -SHRA BR OVC008 FM221800 02012G23KT 3SM -SHRA BR OVC008 FM222000 02011G24KT 3SM -RA BR OVC008 FM222200 02012G25KT 3SM RA BR OVC008=

USA.gov is the U.S. government's official web portal to all federal, state and local government web resources and services.